Leon — SVA7046 — position and weather

sailwx.info

Track history (hours):
 
Tides and Currents Weather Stations Pressure Air Temp Water Temp Dewpoint Dewpoint Depression Visibility Wind Speed Wind Dir Waves Ship Positions

Leon

Last reported at 2018-Jun-15 21:37 UTC. Time now 2018-Jun-18 02:14 UTC.
Position N 37°57' E 023°36'.

Length 34 m; draft 3.7 m.

Type: Tug. MMSI: 239962500.

Date/timePositionNaut miles runAvg speedWind from/ knotsBaromVisibWave heightAir tempDewpointWater temp
2018-Jun-15 21:37N 37°57' E 023°36'0 1.0
2018-Jun-15 21:30N 37°57' E 023°36'1 1.1
2018-Jun-15 21:00N 37°57' E 023°36'1 2.0
2018-Jun-15 20:30N 37°58' E 023°36'0 0.2
2018-Jun-15 20:00N 37°57' E 023°36'2 3.6
2018-Jun-15 19:30N 37°56' E 023°35'2 3.8
2018-Jun-15 19:00N 37°57' E 023°37'0 0.0
2018-Jun-15 18:30N 37°57' E 023°37'0 0.0
2018-Jun-15 18:00N 37°57' E 023°37'0 0.0
2018-Jun-15 17:30N 37°57' E 023°37'0 0.0
2018-Jun-15 17:00N 37°57' E 023°37'0 0.0
2018-Jun-15 16:30N 37°57' E 023°37'0 0.0
2018-Jun-15 16:00N 37°57' E 023°37'0 0.0
2018-Jun-15 15:30N 37°57' E 023°37'1 2.7
2018-Jun-15 15:00N 37°56' E 023°37'0 0.0
2018-Jun-15 14:30N 37°56' E 023°37'1 2.7
2018-Jun-15 14:00N 37°57' E 023°37'0 0.0
2018-Jun-15 13:30N 37°57' E 023°37'0 0.0
2018-Jun-15 13:00N 37°57' E 023°37'0 0.0
2018-Jun-15 12:30N 37°57' E 023°37'0 0.0
2018-Jun-15 12:00N 37°57' E 023°37'0 0.0
2018-Jun-15 11:30N 37°57' E 023°37'0 0.0
2018-Jun-15 11:00N 37°57' E 023°37'0 0.0
2018-Jun-15 10:30N 37°57' E 023°37'0 0.0
2018-Jun-15 10:00N 37°57' E 023°37'0 0.0
2018-Jun-15 09:30N 37°57' E 023°37'0 0.6
2018-Jun-15 09:00N 37°58' E 023°36'1 1.4
2018-Jun-15 08:30N 37°57' E 023°36'1 1.8
2018-Jun-15 08:00N 37°56' E 023°36'1 2.1
2018-Jun-15 07:30N 37°57' E 023°37'0 0.0
2018-Jun-15 07:00N 37°57' E 023°37'0 0.0
2018-Jun-15 06:30N 37°57' E 023°37'0 0.0
2018-Jun-15 06:00N 37°57' E 023°37'1 1.3
2018-Jun-15 05:30N 37°57' E 023°36'1 2.5
2018-Jun-15 05:00N 37°56' E 023°36'1 2.2
2018-Jun-15 04:30N 37°57' E 023°36'1 1.2
2018-Jun-15 04:01N 37°57' E 023°37'0 0.0
2018-Jun-15 03:30N 37°57' E 023°37'0 0.0
2018-Jun-15 03:00N 37°57' E 023°37'0 0.0
2018-Jun-15 02:30N 37°57' E 023°37'0 0.0
2018-Jun-15 02:00N 37°57' E 023°37'0 0.0
2018-Jun-15 01:30N 37°57' E 023°37'0 0.0
2018-Jun-15 01:00N 37°57' E 023°37'0 0.0
2018-Jun-15 00:30N 37°57' E 023°37'0 0.0
2018-Jun-15 00:00N 37°57' E 023°37'0 0.0
2018-Jun-14 23:30N 37°57' E 023°37'0 0.0
2018-Jun-14 23:00N 37°57' E 023°37'0 0.0
2018-Jun-14 22:30N 37°57' E 023°37'0 0.0
2018-Jun-14 22:00N 37°57' E 023°37'0 0.0
2018-Jun-14 21:30N 37°57' E 023°37'0 0.0
2018-Jun-14 21:00N 37°57' E 023°37'0 0.0
2018-Jun-14 20:30N 37°57' E 023°37'0 0.0
2018-Jun-14 20:00N 37°57' E 023°37'0 0.0
2018-Jun-14 19:30N 37°57' E 023°37'0 0.0
2018-Jun-14 19:00N 37°57' E 023°37'0 0.0
2018-Jun-14 18:30N 37°57' E 023°37'0 0.0
2018-Jun-14 18:00N 37°57' E 023°37'0 0.0
2018-Jun-14 17:30N 37°57' E 023°37'0 0.0
2018-Jun-14 17:00N 37°57' E 023°37'0 0.0
2018-Jun-14 16:30N 37°57' E 023°37'0 0.0
2018-Jun-14 16:00N 37°57' E 023°37'0 0.0
2018-Jun-14 15:30N 37°57' E 023°37'0 0.0
2018-Jun-14 15:00N 37°57' E 023°37'0 0.0
2018-Jun-14 14:30N 37°57' E 023°37'0 0.0
2018-Jun-14 14:00N 37°57' E 023°37'0 0.0
2018-Jun-14 13:30N 37°57' E 023°37'0 0.0
2018-Jun-14 13:00N 37°57' E 023°37'0 0.0
2018-Jun-14 12:30N 37°57' E 023°37'0 0.0
2018-Jun-14 12:00N 37°57' E 023°37'0 0.0
2018-Jun-14 11:30N 37°57' E 023°37'0 0.0
2018-Jun-14 11:00N 37°57' E 023°37'0 0.0
2018-Jun-14 10:30N 37°57' E 023°37'0 0.0
2018-Jun-14 10:00N 37°57' E 023°37'3 6.2
2018-Jun-14 09:30N 37°58' E 023°33'4 7.7
2018-Jun-14 09:00N 38°02' E 023°32'0 0.0
2018-Jun-14 08:30N 38°02' E 023°32'0 0.0
2018-Jun-14 08:00N 38°02' E 023°32'0 0.0
2018-Jun-14 07:30N 38°02' E 023°32'0 0.0
2018-Jun-14 07:00N 38°02' E 023°32'2 3.8
2018-Jun-14 06:30N 38°02' E 023°35'1 1.4
2018-Jun-14 06:00N 38°01' E 023°35'1 1.9
2018-Jun-14 05:30N 38°01' E 023°35'3 6.0
2018-Jun-14 04:59N 37°58' E 023°33'3 3.4
2018-Jun-14 04:07N 37°57' E 023°37'0 0.0
2018-Jun-14 04:00N 37°57' E 023°37'0 0.0
2018-Jun-14 02:04N 37°57' E 023°37'0 3.2
2018-Jun-14 01:56N 37°57' E 023°36'1 2.2
2018-Jun-14 01:30N 37°57' E 023°35'0 0.4
2018-Jun-14 01:00N 37°57' E 023°35'1 0.3
2018-Jun-13 21:13N 37°57' E 023°36'2 9.0
2018-Jun-13 21:00N 37°57' E 023°34'0 0.7
2018-Jun-13 20:30N 37°58' E 023°34'0 0.6
2018-Jun-13 20:00N 37°57' E 023°34'2 0.6
2018-Jun-13 16:41N 37°57' E 023°36'2 9.6
2018-Jun-13 16:30N 37°57' E 023°34'5 9.8
2018-Jun-13 16:00N 38°02' E 023°32'3 5.2
2018-Jun-13 15:30N 38°01' E 023°36'0 0.3
2018-Jun-13 15:00N 38°01' E 023°35'1 2.5
2018-Jun-13 14:30N 38°01' E 023°34'4 7.0
2018-Jun-13 14:00N 37°57' E 023°35'1 2.8
2018-Jun-13 13:30N 37°57' E 023°37'0 0.0
2018-Jun-13 13:00N 37°57' E 023°37'0 0.0
2018-Jun-13 12:30N 37°57' E 023°37'0 0.0
2018-Jun-13 12:00N 37°57' E 023°37'0 0.0
2018-Jun-13 11:30N 37°57' E 023°37'0 0.0
2018-Jun-13 11:00N 37°57' E 023°37'0 0.0
2018-Jun-13 10:30N 37°57' E 023°37'0 0.0
2018-Jun-13 10:00N 37°57' E 023°37'0 0.0
2018-Jun-13 09:30N 37°57' E 023°37'0 0.0
2018-Jun-13 09:00N 37°57' E 023°37'0 0.0
2018-Jun-13 08:30N 37°57' E 023°37'0 0.0
2018-Jun-13 08:00N 37°57' E 023°37'0 0.0
2018-Jun-13 07:30N 37°57' E 023°37'0 0.0
2018-Jun-13 07:00N 37°57' E 023°37'0 0.0
2018-Jun-13 06:30N 37°57' E 023°37'1 1.4
2018-Jun-13 06:00N 37°57' E 023°36'2 3.3
2018-Jun-13 05:30N 37°55' E 023°36'2 4.1
2018-Jun-13 05:00N 37°57' E 023°37'0 0.0
2018-Jun-11 21:03N 37°57' E 023°37'0 1.5
2018-Jun-11 21:00N 37°57' E 023°36'1 1.2
2018-Jun-11 20:31N 37°57' E 023°36'1 1.0
2018-Jun-11 20:01N 37°57' E 023°36'1 1.5
2018-Jun-11 19:30N 37°57' E 023°37'0 0.0
2018-Jun-11 19:00N 37°57' E 023°37'0 0.0
2018-Jun-11 18:30N 37°57' E 023°37'0 0.0
2018-Jun-11 18:00N 37°57' E 023°37'0 0.0
2018-Jun-11 17:30N 37°57' E 023°37'0 0.0
2018-Jun-11 17:00N 37°57' E 023°37'0 0.0
2018-Jun-11 16:30N 37°57' E 023°37'0 0.0
2018-Jun-11 15:59N 37°57' E 023°37'0 0.0
2018-Jun-11 15:30N 37°57' E 023°37'0 0.0
2018-Jun-11 15:00N 37°57' E 023°37'0 0.0
2018-Jun-11 14:30N 37°57' E 023°37'0 0.0
2018-Jun-11 14:00N 37°57' E 023°37'0 0.0
2018-Jun-11 13:30N 37°57' E 023°37'0 0.0
2018-Jun-11 13:00N 37°57' E 023°37'0 0.2
2018-Jun-11 12:30N 37°57' E 023°37'0 0.3
2018-Jun-11 12:00N 37°57' E 023°36'0 0.4
2018-Jun-11 11:30N 37°57' E 023°37'0 0.0
2018-Jun-11 11:00N 37°57' E 023°37'0 0.0
2018-Jun-11 10:29N 37°57' E 023°37'0 0.0
2018-Jun-11 10:00N 37°57' E 023°37'0 0.0
2018-Jun-11 09:30N 37°57' E 023°37'0 0.0
2018-Jun-11 09:00N 37°57' E 023°37'0 0.0
2018-Jun-11 08:30N 37°57' E 023°37'0 0.0
2018-Jun-11 08:00N 37°57' E 023°37'0 0.0
2018-Jun-11 07:30N 37°57' E 023°37'0 0.0
2018-Jun-11 07:00N 37°57' E 023°37'0 0.0
2018-Jun-11 06:30N 37°57' E 023°37'0 0.0
2018-Jun-11 06:00N 37°57' E 023°37'0 0.8
2018-Jun-11 05:30N 37°57' E 023°36'1 2.1
2018-Jun-11 05:00N 37°57' E 023°35'1 2.2
2018-Jun-11 04:30N 37°56' E 023°35'5 0.3
2018-Jun-10 10:41N 38°01' E 023°35'1 3.3
2018-Jun-10 10:31N 38°02' E 023°36'1 2.5
2018-Jun-10 10:00N 38°01' E 023°34'1 2.5
2018-Jun-10 09:31N 38°02' E 023°36'1 1.2
2018-Jun-10 09:00N 38°02' E 023°35'3 6.8
2018-Jun-10 08:30N 38°02' E 023°31'1 2.8
2018-Jun-10 08:01N 38°01' E 023°32'0 0.3
2018-Jun-10 07:31N 38°01' E 023°32'2 3.1
2018-Jun-10 07:00N 37°60' E 023°33'3 6.7
2018-Jun-10 06:30N 37°57' E 023°36'1 1.3
2018-Jun-10 06:00N 37°57' E 023°37'0 0.3
2018-Jun-10 05:30N 37°58' E 023°37'2 3.2
2018-Jun-10 05:00N 37°56' E 023°37'1 2.8
2018-Jun-10 04:30N 37°57' E 023°37'0 0.0
2018-Jun-10 04:01N 37°57' E 023°37'0 0.0
2018-Jun-10 03:30N 37°57' E 023°37'0 0.0
2018-Jun-10 03:01N 37°57' E 023°37'0 0.0
2018-Jun-10 02:31N 37°57' E 023°37'0 0.0
2018-Jun-10 02:00N 37°57' E 023°37'0 0.0
2018-Jun-10 01:30N 37°57' E 023°37'0 0.0
2018-Jun-10 01:00N 37°57' E 023°37'0 0.0
2018-Jun-10 00:30N 37°57' E 023°37'0 0.0
2018-Jun-10 00:00N 37°57' E 023°37'0 0.0
2018-Jun-09 23:30N 37°57' E 023°37'0 0.0
2018-Jun-09 23:01N 37°57' E 023°37'0 0.0
2018-Jun-09 22:30N 37°57' E 023°37'0 0.0
2018-Jun-09 22:00N 37°57' E 023°37'0 0.0
2018-Jun-09 21:30N 37°57' E 023°37'0 0.0
2018-Jun-09 21:00N 37°57' E 023°37'0 0.0
2018-Jun-09 20:30N 37°57' E 023°37'0 0.0
2018-Jun-09 19:59N 37°57' E 023°37'1 2.0
2018-Jun-09 19:30N 37°57' E 023°35'0 0.1
2018-Jun-09 19:00N 37°57' E 023°35'1 1.8
2018-Jun-09 18:30N 37°58' E 023°36'0 0.8
2018-Jun-09 18:01N 37°57' E 023°37'0 0.0
2018-Jun-09 17:30N 37°57' E 023°37'0 0.0
2018-Jun-09 17:00N 37°57' E 023°37'0 0.0
2018-Jun-09 16:30N 37°57' E 023°37'0 0.0
2018-Jun-09 16:00N 37°57' E 023°37'0 0.0
2018-Jun-09 15:00N 37°57' E 023°37'0 0.0
2018-Jun-09 14:30N 37°57' E 023°37'1 2.0
2018-Jun-09 14:00N 37°57' E 023°35'0 0.8
2018-Jun-09 13:30N 37°57' E 023°36'1 1.3
2018-Jun-09 13:00N 37°57' E 023°37'0 0.0
2018-Jun-09 12:30N 37°57' E 023°37'1 2.0
2018-Jun-09 12:00N 37°57' E 023°35'1 2.0
2018-Jun-09 11:30N 37°57' E 023°37'0 0.0
2018-Jun-09 11:00N 37°57' E 023°37'0 0.0
2018-Jun-09 10:30N 37°57' E 023°37'0 0.0
2018-Jun-09 10:01N 37°57' E 023°37'1 1.4
2018-Jun-09 09:30N 37°57' E 023°36'1 1.8
2018-Jun-09 09:01N 37°57' E 023°36'1 1.2
2018-Jun-09 08:30N 37°57' E 023°36'0 0.4
2018-Jun-09 08:00N 37°57' E 023°36'0 0.7
2018-Jun-09 07:30N 37°57' E 023°36'0 0.3
2018-Jun-09 07:00N 37°57' E 023°36'0 0.8
2018-Jun-09 06:29N 37°57' E 023°37'0 0.0
2018-Jun-09 06:00N 37°57' E 023°37'0 0.0
2018-Jun-09 05:30N 37°57' E 023°37'1 1.2
2018-Jun-09 05:00N 37°57' E 023°36'1 1.2
2018-Jun-09 04:30N 37°57' E 023°37'0 0.0
2018-Jun-09 04:00N 37°57' E 023°37'0 0.0
2018-Jun-09 03:30N 37°57' E 023°37'0 0.0
2018-Jun-09 03:00N 37°57' E 023°37'0 0.0
2018-Jun-09 02:30N 37°57' E 023°37'0 0.0
2018-Jun-09 02:00N 37°57' E 023°37'0 0.0
2018-Jun-09 01:30N 37°57' E 023°37'0 0.0
2018-Jun-09 00:59N 37°57' E 023°37'0 0.0
2018-Jun-09 00:30N 37°57' E 023°37'0 0.0
2018-Jun-09 00:00N 37°57' E 023°37'0 0.0
2018-Jun-08 23:30N 37°57' E 023°37'0 0.0
2018-Jun-08 23:00N 37°57' E 023°37'0 0.0
2018-Jun-08 22:30N 37°57' E 023°37'0 0.0
2018-Jun-08 22:00N 37°57' E 023°37'0 0.0
2018-Jun-08 21:30N 37°57' E 023°37'0 0.0
2018-Jun-08 21:00N 37°57' E 023°37'0 0.0
2018-Jun-08 20:30N 37°57' E 023°37'0 0.0
2018-Jun-08 20:00N 37°57' E 023°37'0 0.0
2018-Jun-08 19:30N 37°57' E 023°37'0 0.0
2018-Jun-08 19:00N 37°57' E 023°37'0 0.0
2018-Jun-08 18:30N 37°57' E 023°37'0 0.0
2018-Jun-08 18:00N 37°57' E 023°37'0 0.0
2018-Jun-08 17:30N 37°57' E 023°37'0 0.0
2018-Jun-08 17:00N 37°57' E 023°37'0 0.0
2018-Jun-08 16:30N 37°57' E 023°37'0 0.0
2018-Jun-08 16:00N 37°57' E 023°37'1 1.1
2018-Jun-08 15:30N 37°57' E 023°36'1 1.1
2018-Jun-08 15:00N 37°57' E 023°37'0 0.0
2018-Jun-08 14:30N 37°57' E 023°37'0 0.0
2018-Jun-08 14:00N 37°57' E 023°37'0 0.0
2018-Jun-08 13:30N 37°57' E 023°37'1 1.3
2018-Jun-08 13:00N 37°57' E 023°36'0 0.8
2018-Jun-08 12:30N 37°57' E 023°35'1 1.6
2018-Jun-08 12:00N 37°56' E 023°35'2 3.2
2018-Jun-08 11:30N 37°57' E 023°36'0 0.3
2018-Jun-08 11:00N 37°57' E 023°37'0 0.0
2018-Jun-08 10:30N 37°57' E 023°37'0 0.0
2018-Jun-08 10:00N 37°57' E 023°37'0 0.0
2018-Jun-08 09:30N 37°57' E 023°37'0 0.0
2018-Jun-08 09:00N 37°57' E 023°37'0 0.0
2018-Jun-08 08:30N 37°57' E 023°37'0 0.0
2018-Jun-08 08:00N 37°57' E 023°37'0 0.0
2018-Jun-08 07:30N 37°57' E 023°37'0 0.0
2018-Jun-08 07:00N 37°57' E 023°37'0 0.0
2018-Jun-08 06:30N 37°57' E 023°37'0 0.0
2018-Jun-08 06:00N 37°57' E 023°37'0 0.0
2018-Jun-08 05:31N 37°57' E 023°37'1 2.1
2018-Jun-08 05:01N 37°57' E 023°35'1 1.3
2018-Jun-08 04:31N 37°57' E 023°36'1 0.0
2018-Jun-07 12:45N 37°57' E 023°37'2 9.4
2018-Jun-07 12:31N 37°57' E 023°34'0 0.3
2018-Jun-07 12:00N 37°58' E 023°34'1 2.7
2018-Jun-07 11:30N 37°57' E 023°35'1 2.3
2018-Jun-07 11:00N 37°57' E 023°37'0 0.0
2018-Jun-07 10:30N 37°57' E 023°37'0 0.0
2018-Jun-07 10:00N 37°57' E 023°37'0 0.0
2018-Jun-07 09:31N 37°57' E 023°37'0 0.0
2018-Jun-07 09:01N 37°57' E 023°37'3 5.5
2018-Jun-07 08:30N 37°58' E 023°33'510.1
2018-Jun-07 08:00N 38°02' E 023°32'0 0.7
2018-Jun-07 07:30N 38°02' E 023°32'2 3.1
2018-Jun-07 07:00N 38°01' E 023°32'2 4.7
2018-Jun-07 06:30N 38°02' E 023°35'0 0.9
2018-Jun-07 06:00N 38°02' E 023°34'2 3.6
2018-Jun-07 05:31N 38°01' E 023°32'0 0.1
2018-Jun-07 05:00N 38°01' E 023°32'2 4.3
2018-Jun-07 04:30N 37°59' E 023°33'4 7.0
2018-Jun-07 04:00N 37°57' E 023°37'0 0.0
2018-Jun-07 03:30N 37°57' E 023°37'0 0.0
2018-Jun-07 03:00N 37°57' E 023°37'0 0.0
2018-Jun-07 02:30N 37°57' E 023°37'0 0.0
2018-Jun-07 02:00N 37°57' E 023°37'0 0.0
2018-Jun-07 01:30N 37°57' E 023°37'0 0.0
2018-Jun-07 01:00N 37°57' E 023°37'0 0.0
2018-Jun-07 00:30N 37°57' E 023°37'0 0.0
2018-Jun-07 00:00N 37°57' E 023°37'0 0.0
2018-Jun-06 23:30N 37°57' E 023°37'0 0.0
2018-Jun-06 23:00N 37°57' E 023°37'0 0.0
2018-Jun-06 22:30N 37°57' E 023°37'0 0.0
2018-Jun-06 22:00N 37°57' E 023°37'0 0.0
2018-Jun-06 21:30N 37°57' E 023°37'0 0.0
2018-Jun-06 21:00N 37°57' E 023°37'0 0.0
2018-Jun-06 20:30N 37°57' E 023°37'0 0.0
2018-Jun-06 20:00N 37°57' E 023°37'0 0.0
2018-Jun-06 19:30N 37°57' E 023°37'0 0.0
2018-Jun-06 19:00N 37°57' E 023°37'0 0.0
2018-Jun-06 18:30N 37°57' E 023°37'0 0.0
2018-Jun-06 18:00N 37°57' E 023°37'0 0.0
2018-Jun-06 17:30N 37°57' E 023°37'0 0.0
2018-Jun-06 17:00N 37°57' E 023°37'0 0.0
2018-Jun-06 16:30N 37°57' E 023°37'0 0.0
2018-Jun-06 16:00N 37°57' E 023°37'0 0.0
2018-Jun-06 15:29N 37°57' E 023°37'0 0.0
2018-Jun-06 15:00N 37°57' E 023°37'0 0.0
2018-Jun-06 14:30N 37°57' E 023°37'0 0.0
2018-Jun-06 14:00N 37°57' E 023°37'0 0.0
2018-Jun-06 13:30N 37°57' E 023°37'0 0.0
2018-Jun-06 13:00N 37°57' E 023°37'0 0.0
2018-Jun-06 12:30N 37°57' E 023°37'0 0.0
2018-Jun-06 12:00N 37°57' E 023°37'0 0.0
2018-Jun-06 11:30N 37°57' E 023°37'0 0.0
2018-Jun-06 11:00N 37°57' E 023°37'0 0.0
2018-Jun-06 10:30N 37°57' E 023°37'0 0.0
2018-Jun-06 10:00N 37°57' E 023°37'0 0.0
2018-Jun-06 09:30N 37°57' E 023°37'0 0.0
2018-Jun-06 09:00N 37°57' E 023°37'0 0.0
2018-Jun-06 08:30N 37°57' E 023°37'0 0.0
2018-Jun-06 08:00N 37°57' E 023°37'0 0.0
2018-Jun-06 07:30N 37°57' E 023°37'0 0.0
2018-Jun-06 07:00N 37°57' E 023°37'0 0.0
2018-Jun-06 06:30N 37°57' E 023°37'1 1.5
2018-Jun-06 06:00N 37°57' E 023°36'0 0.1
2018-Jun-06 05:30N 37°57' E 023°36'1 2.0
2018-Jun-06 05:00N 37°56' E 023°35'1 2.2
2018-Jun-06 04:30N 37°57' E 023°36'1 1.3
2018-Jun-06 04:00N 37°57' E 023°36'0 0.1
2018-Jun-06 03:30N 37°57' E 023°37'0 0.0
2018-Jun-06 03:00N 37°57' E 023°37'0 0.0
2018-Jun-06 02:30N 37°57' E 023°37'0 0.0
2018-Jun-06 02:00N 37°57' E 023°37'0 0.0
2018-Jun-06 01:30N 37°57' E 023°37'0 0.0
2018-Jun-06 01:00N 37°57' E 023°37'0 0.0
2018-Jun-06 00:30N 37°57' E 023°37'0 0.0
2018-Jun-06 00:00N 37°57' E 023°37'0 0.0
2018-Jun-05 23:30N 37°57' E 023°37'0 0.0
2018-Jun-05 23:00N 37°57' E 023°37'0 0.0
2018-Jun-05 22:30N 37°57' E 023°37'0 0.0
2018-Jun-05 22:00N 37°57' E 023°37'  
Track history (hours):
 
Tides and Currents Weather Stations Pressure Air Temp Water Temp Dewpoint Dewpoint Depression Visibility Wind Speed Wind Dir Waves Ship Positions

Leon

Last reported at 2018-Jun-15 21:37 UTC. Time now 2018-Jun-18 02:14 UTC.
Position N 37°57' E 023°36'.

Length 34 m; draft 3.7 m.

Type: Tug. MMSI: 239962500.

Date/timePositionNaut miles runAvg speedWind from/ knotsBaromVisibWave heightAir tempDewpointWater temp
2018-Jun-15 21:37N 37°57' E 023°36'0 1.0
2018-Jun-15 21:30N 37°57' E 023°36'1 1.1
2018-Jun-15 21:00N 37°57' E 023°36'1 2.0
2018-Jun-15 20:30N 37°58' E 023°36'0 0.2
2018-Jun-15 20:00N 37°57' E 023°36'2 3.6
2018-Jun-15 19:30N 37°56' E 023°35'2 3.8
2018-Jun-15 19:00N 37°57' E 023°37'0 0.0
2018-Jun-15 18:30N 37°57' E 023°37'0 0.0
2018-Jun-15 18:00N 37°57' E 023°37'0 0.0
2018-Jun-15 17:30N 37°57' E 023°37'0 0.0
2018-Jun-15 17:00N 37°57' E 023°37'0 0.0
2018-Jun-15 16:30N 37°57' E 023°37'0 0.0
2018-Jun-15 16:00N 37°57' E 023°37'0 0.0
2018-Jun-15 15:30N 37°57' E 023°37'1 2.7
2018-Jun-15 15:00N 37°56' E 023°37'0 0.0
2018-Jun-15 14:30N 37°56' E 023°37'1 2.7
2018-Jun-15 14:00N 37°57' E 023°37'0 0.0
2018-Jun-15 13:30N 37°57' E 023°37'0 0.0
2018-Jun-15 13:00N 37°57' E 023°37'0 0.0
2018-Jun-15 12:30N 37°57' E 023°37'0 0.0
2018-Jun-15 12:00N 37°57' E 023°37'0 0.0
2018-Jun-15 11:30N 37°57' E 023°37'0 0.0
2018-Jun-15 11:00N 37°57' E 023°37'0 0.0
2018-Jun-15 10:30N 37°57' E 023°37'0 0.0
2018-Jun-15 10:00N 37°57' E 023°37'0 0.0
2018-Jun-15 09:30N 37°57' E 023°37'0 0.6
2018-Jun-15 09:00N 37°58' E 023°36'1 1.4
2018-Jun-15 08:30N 37°57' E 023°36'1 1.8
2018-Jun-15 08:00N 37°56' E 023°36'1 2.1
2018-Jun-15 07:30N 37°57' E 023°37'0 0.0
2018-Jun-15 07:00N 37°57' E 023°37'0 0.0
2018-Jun-15 06:30N 37°57' E 023°37'0 0.0
2018-Jun-15 06:00N 37°57' E 023°37'1 1.3
2018-Jun-15 05:30N 37°57' E 023°36'1 2.5
2018-Jun-15 05:00N 37°56' E 023°36'1 2.2
2018-Jun-15 04:30N 37°57' E 023°36'1 1.2
2018-Jun-15 04:01N 37°57' E 023°37'0 0.0
2018-Jun-15 03:30N 37°57' E 023°37'0 0.0
2018-Jun-15 03:00N 37°57' E 023°37'0 0.0
2018-Jun-15 02:30N 37°57' E 023°37'0 0.0
2018-Jun-15 02:00N 37°57' E 023°37'0 0.0
2018-Jun-15 01:30N 37°57' E 023°37'0 0.0
2018-Jun-15 01:00N 37°57' E 023°37'0 0.0
2018-Jun-15 00:30N 37°57' E 023°37'0 0.0
2018-Jun-15 00:00N 37°57' E 023°37'0 0.0
2018-Jun-14 23:30N 37°57' E 023°37'0 0.0
2018-Jun-14 23:00N 37°57' E 023°37'0 0.0
2018-Jun-14 22:30N 37°57' E 023°37'0 0.0
2018-Jun-14 22:00N 37°57' E 023°37'0 0.0
2018-Jun-14 21:30N 37°57' E 023°37'0 0.0
2018-Jun-14 21:00N 37°57' E 023°37'0 0.0
2018-Jun-14 20:30N 37°57' E 023°37'0 0.0
2018-Jun-14 20:00N 37°57' E 023°37'0 0.0
2018-Jun-14 19:30N 37°57' E 023°37'0 0.0
2018-Jun-14 19:00N 37°57' E 023°37'0 0.0
2018-Jun-14 18:30N 37°57' E 023°37'0 0.0
2018-Jun-14 18:00N 37°57' E 023°37'0 0.0
2018-Jun-14 17:30N 37°57' E 023°37'0 0.0
2018-Jun-14 17:00N 37°57' E 023°37'0 0.0
2018-Jun-14 16:30N 37°57' E 023°37'0 0.0
2018-Jun-14 16:00N 37°57' E 023°37'0 0.0
2018-Jun-14 15:30N 37°57' E 023°37'0 0.0
2018-Jun-14 15:00N 37°57' E 023°37'0 0.0
2018-Jun-14 14:30N 37°57' E 023°37'0 0.0
2018-Jun-14 14:00N 37°57' E 023°37'0 0.0
2018-Jun-14 13:30N 37°57' E 023°37'0 0.0
2018-Jun-14 13:00N 37°57' E 023°37'0 0.0
2018-Jun-14 12:30N 37°57' E 023°37'0 0.0
2018-Jun-14 12:00N 37°57' E 023°37'0 0.0
2018-Jun-14 11:30N 37°57' E 023°37'0 0.0
2018-Jun-14 11:00N 37°57' E 023°37'0 0.0
2018-Jun-14 10:30N 37°57' E 023°37'0 0.0
2018-Jun-14 10:00N 37°57' E 023°37'3 6.2
2018-Jun-14 09:30N 37°58' E 023°33'4 7.7
2018-Jun-14 09:00N 38°02' E 023°32'0 0.0
2018-Jun-14 08:30N 38°02' E 023°32'0 0.0
2018-Jun-14 08:00N 38°02' E 023°32'0 0.0
2018-Jun-14 07:30N 38°02' E 023°32'0 0.0
2018-Jun-14 07:00N 38°02' E 023°32'2 3.8
2018-Jun-14 06:30N 38°02' E 023°35'1 1.4
2018-Jun-14 06:00N 38°01' E 023°35'1 1.9
2018-Jun-14 05:30N 38°01' E 023°35'3 6.0
2018-Jun-14 04:59N 37°58' E 023°33'3 3.4
2018-Jun-14 04:07N 37°57' E 023°37'0 0.0
2018-Jun-14 04:00N 37°57' E 023°37'0 0.0
2018-Jun-14 02:04N 37°57' E 023°37'0 3.2
2018-Jun-14 01:56N 37°57' E 023°36'1 2.2
2018-Jun-14 01:30N 37°57' E 023°35'0 0.4
2018-Jun-14 01:00N 37°57' E 023°35'1 0.3
2018-Jun-13 21:13N 37°57' E 023°36'2 9.0
2018-Jun-13 21:00N 37°57' E 023°34'0 0.7
2018-Jun-13 20:30N 37°58' E 023°34'0 0.6
2018-Jun-13 20:00N 37°57' E 023°34'2 0.6
2018-Jun-13 16:41N 37°57' E 023°36'2 9.6
2018-Jun-13 16:30N 37°57' E 023°34'5 9.8
2018-Jun-13 16:00N 38°02' E 023°32'3 5.2
2018-Jun-13 15:30N 38°01' E 023°36'0 0.3
2018-Jun-13 15:00N 38°01' E 023°35'1 2.5
2018-Jun-13 14:30N 38°01' E 023°34'4 7.0
2018-Jun-13 14:00N 37°57' E 023°35'1 2.8
2018-Jun-13 13:30N 37°57' E 023°37'0 0.0
2018-Jun-13 13:00N 37°57' E 023°37'0 0.0
2018-Jun-13 12:30N 37°57' E 023°37'0 0.0
2018-Jun-13 12:00N 37°57' E 023°37'0 0.0
2018-Jun-13 11:30N 37°57' E 023°37'0 0.0
2018-Jun-13 11:00N 37°57' E 023°37'0 0.0
2018-Jun-13 10:30N 37°57' E 023°37'0 0.0
2018-Jun-13 10:00N 37°57' E 023°37'0 0.0
2018-Jun-13 09:30N 37°57' E 023°37'0 0.0
2018-Jun-13 09:00N 37°57' E 023°37'0 0.0
2018-Jun-13 08:30N 37°57' E 023°37'0 0.0
2018-Jun-13 08:00N 37°57' E 023°37'0 0.0
2018-Jun-13 07:30N 37°57' E 023°37'0 0.0
2018-Jun-13 07:00N 37°57' E 023°37'0 0.0
2018-Jun-13 06:30N 37°57' E 023°37'1 1.4
2018-Jun-13 06:00N 37°57' E 023°36'2 3.3
2018-Jun-13 05:30N 37°55' E 023°36'2 4.1
2018-Jun-13 05:00N 37°57' E 023°37'0 0.0
2018-Jun-11 21:03N 37°57' E 023°37'0 1.5
2018-Jun-11 21:00N 37°57' E 023°36'1 1.2
2018-Jun-11 20:31N 37°57' E 023°36'1 1.0
2018-Jun-11 20:01N 37°57' E 023°36'1 1.5
2018-Jun-11 19:30N 37°57' E 023°37'0 0.0
2018-Jun-11 19:00N 37°57' E 023°37'0 0.0
2018-Jun-11 18:30N 37°57' E 023°37'0 0.0
2018-Jun-11 18:00N 37°57' E 023°37'0 0.0
2018-Jun-11 17:30N 37°57' E 023°37'0 0.0
2018-Jun-11 17:00N 37°57' E 023°37'0 0.0
2018-Jun-11 16:30N 37°57' E 023°37'0 0.0
2018-Jun-11 15:59N 37°57' E 023°37'0 0.0
2018-Jun-11 15:30N 37°57' E 023°37'0 0.0
2018-Jun-11 15:00N 37°57' E 023°37'0 0.0
2018-Jun-11 14:30N 37°57' E 023°37'0 0.0
2018-Jun-11 14:00N 37°57' E 023°37'0 0.0
2018-Jun-11 13:30N 37°57' E 023°37'0 0.0
2018-Jun-11 13:00N 37°57' E 023°37'0 0.2
2018-Jun-11 12:30N 37°57' E 023°37'0 0.3
2018-Jun-11 12:00N 37°57' E 023°36'0 0.4
2018-Jun-11 11:30N 37°57' E 023°37'0 0.0
2018-Jun-11 11:00N 37°57' E 023°37'0 0.0
2018-Jun-11 10:29N 37°57' E 023°37'0 0.0
2018-Jun-11 10:00N 37°57' E 023°37'0 0.0
2018-Jun-11 09:30N 37°57' E 023°37'0 0.0
2018-Jun-11 09:00N 37°57' E 023°37'0 0.0
2018-Jun-11 08:30N 37°57' E 023°37'0 0.0
2018-Jun-11 08:00N 37°57' E 023°37'0 0.0
2018-Jun-11 07:30N 37°57' E 023°37'0 0.0
2018-Jun-11 07:00N 37°57' E 023°37'0 0.0
2018-Jun-11 06:30N 37°57' E 023°37'0 0.0
2018-Jun-11 06:00N 37°57' E 023°37'0 0.8
2018-Jun-11 05:30N 37°57' E 023°36'1 2.1
2018-Jun-11 05:00N 37°57' E 023°35'1 2.2
2018-Jun-11 04:30N 37°56' E 023°35'5 0.3
2018-Jun-10 10:41N 38°01' E 023°35'1 3.3
2018-Jun-10 10:31N 38°02' E 023°36'1 2.5
2018-Jun-10 10:00N 38°01' E 023°34'1 2.5
2018-Jun-10 09:31N 38°02' E 023°36'1 1.2
2018-Jun-10 09:00N 38°02' E 023°35'3 6.8
2018-Jun-10 08:30N 38°02' E 023°31'1 2.8
2018-Jun-10 08:01N 38°01' E 023°32'0 0.3
2018-Jun-10 07:31N 38°01' E 023°32'2 3.1
2018-Jun-10 07:00N 37°60' E 023°33'3 6.7
2018-Jun-10 06:30N 37°57' E 023°36'1 1.3
2018-Jun-10 06:00N 37°57' E 023°37'0 0.3
2018-Jun-10 05:30N 37°58' E 023°37'2 3.2
2018-Jun-10 05:00N 37°56' E 023°37'1 2.8
2018-Jun-10 04:30N 37°57' E 023°37'0 0.0
2018-Jun-10 04:01N 37°57' E 023°37'0 0.0
2018-Jun-10 03:30N 37°57' E 023°37'0 0.0
2018-Jun-10 03:01N 37°57' E 023°37'0 0.0
2018-Jun-10 02:31N 37°57' E 023°37'0 0.0
2018-Jun-10 02:00N 37°57' E 023°37'0 0.0
2018-Jun-10 01:30N 37°57' E 023°37'0 0.0
2018-Jun-10 01:00N 37°57' E 023°37'0 0.0
2018-Jun-10 00:30N 37°57' E 023°37'0 0.0
2018-Jun-10 00:00N 37°57' E 023°37'0 0.0
2018-Jun-09 23:30N 37°57' E 023°37'0 0.0
2018-Jun-09 23:01N 37°57' E 023°37'0 0.0
2018-Jun-09 22:30N 37°57' E 023°37'0 0.0
2018-Jun-09 22:00N 37°57' E 023°37'0 0.0
2018-Jun-09 21:30N 37°57' E 023°37'0 0.0
2018-Jun-09 21:00N 37°57' E 023°37'0 0.0
2018-Jun-09 20:30N 37°57' E 023°37'0 0.0
2018-Jun-09 19:59N 37°57' E 023°37'1 2.0
2018-Jun-09 19:30N 37°57' E 023°35'0 0.1
2018-Jun-09 19:00N 37°57' E 023°35'1 1.8
2018-Jun-09 18:30N 37°58' E 023°36'0 0.8
2018-Jun-09 18:01N 37°57' E 023°37'0 0.0
2018-Jun-09 17:30N 37°57' E 023°37'0 0.0
2018-Jun-09 17:00N 37°57' E 023°37'0 0.0
2018-Jun-09 16:30N 37°57' E 023°37'0 0.0
2018-Jun-09 16:00N 37°57' E 023°37'0 0.0
2018-Jun-09 15:00N 37°57' E 023°37'0 0.0
2018-Jun-09 14:30N 37°57' E 023°37'1 2.0
2018-Jun-09 14:00N 37°57' E 023°35'0 0.8
2018-Jun-09 13:30N 37°57' E 023°36'1 1.3
2018-Jun-09 13:00N 37°57' E 023°37'0 0.0
2018-Jun-09 12:30N 37°57' E 023°37'1 2.0
2018-Jun-09 12:00N 37°57' E 023°35'1 2.0
2018-Jun-09 11:30N 37°57' E 023°37'0 0.0
2018-Jun-09 11:00N 37°57' E 023°37'0 0.0
2018-Jun-09 10:30N 37°57' E 023°37'0 0.0
2018-Jun-09 10:01N 37°57' E 023°37'1 1.4
2018-Jun-09 09:30N 37°57' E 023°36'1 1.8
2018-Jun-09 09:01N 37°57' E 023°36'1 1.2
2018-Jun-09 08:30N 37°57' E 023°36'0 0.4
2018-Jun-09 08:00N 37°57' E 023°36'0 0.7
2018-Jun-09 07:30N 37°57' E 023°36'0 0.3
2018-Jun-09 07:00N 37°57' E 023°36'0 0.8
2018-Jun-09 06:29N 37°57' E 023°37'0 0.0
2018-Jun-09 06:00N 37°57' E 023°37'0 0.0
2018-Jun-09 05:30N 37°57' E 023°37'1 1.2
2018-Jun-09 05:00N 37°57' E 023°36'1 1.2
2018-Jun-09 04:30N 37°57' E 023°37'0 0.0
2018-Jun-09 04:00N 37°57' E 023°37'0 0.0
2018-Jun-09 03:30N 37°57' E 023°37'0 0.0
2018-Jun-09 03:00N 37°57' E 023°37'0 0.0
2018-Jun-09 02:30N 37°57' E 023°37'0 0.0
2018-Jun-09 02:00N 37°57' E 023°37'0 0.0
2018-Jun-09 01:30N 37°57' E 023°37'0 0.0
2018-Jun-09 00:59N 37°57' E 023°37'0 0.0
2018-Jun-09 00:30N 37°57' E 023°37'0 0.0
2018-Jun-09 00:00N 37°57' E 023°37'0 0.0
2018-Jun-08 23:30N 37°57' E 023°37'0 0.0
2018-Jun-08 23:00N 37°57' E 023°37'0 0.0
2018-Jun-08 22:30N 37°57' E 023°37'0 0.0
2018-Jun-08 22:00N 37°57' E 023°37'0 0.0
2018-Jun-08 21:30N 37°57' E 023°37'0 0.0
2018-Jun-08 21:00N 37°57' E 023°37'0 0.0
2018-Jun-08 20:30N 37°57' E 023°37'0 0.0
2018-Jun-08 20:00N 37°57' E 023°37'0 0.0
2018-Jun-08 19:30N 37°57' E 023°37'0 0.0
2018-Jun-08 19:00N 37°57' E 023°37'0 0.0
2018-Jun-08 18:30N 37°57' E 023°37'0 0.0
2018-Jun-08 18:00N 37°57' E 023°37'0 0.0
2018-Jun-08 17:30N 37°57' E 023°37'0 0.0
2018-Jun-08 17:00N 37°57' E 023°37'0 0.0
2018-Jun-08 16:30N 37°57' E 023°37'0 0.0
2018-Jun-08 16:00N 37°57' E 023°37'1 1.1
2018-Jun-08 15:30N 37°57' E 023°36'1 1.1
2018-Jun-08 15:00N 37°57' E 023°37'0 0.0
2018-Jun-08 14:30N 37°57' E 023°37'0 0.0
2018-Jun-08 14:00N 37°57' E 023°37'0 0.0
2018-Jun-08 13:30N 37°57' E 023°37'1 1.3
2018-Jun-08 13:00N 37°57' E 023°36'0 0.8
2018-Jun-08 12:30N 37°57' E 023°35'1 1.6
2018-Jun-08 12:00N 37°56' E 023°35'2 3.2
2018-Jun-08 11:30N 37°57' E 023°36'0 0.3
2018-Jun-08 11:00N 37°57' E 023°37'0 0.0
2018-Jun-08 10:30N 37°57' E 023°37'0 0.0
2018-Jun-08 10:00N 37°57' E 023°37'0 0.0
2018-Jun-08 09:30N 37°57' E 023°37'0 0.0
2018-Jun-08 09:00N 37°57' E 023°37'0 0.0
2018-Jun-08 08:30N 37°57' E 023°37'0 0.0
2018-Jun-08 08:00N 37°57' E 023°37'0 0.0
2018-Jun-08 07:30N 37°57' E 023°37'0 0.0
2018-Jun-08 07:00N 37°57' E 023°37'0 0.0
2018-Jun-08 06:30N 37°57' E 023°37'0 0.0
2018-Jun-08 06:00N 37°57' E 023°37'0 0.0
2018-Jun-08 05:31N 37°57' E 023°37'1 2.1
2018-Jun-08 05:01N 37°57' E 023°35'1 1.3
2018-Jun-08 04:31N 37°57' E 023°36'1 0.0
2018-Jun-07 12:45N 37°57' E 023°37'2 9.4
2018-Jun-07 12:31N 37°57' E 023°34'0 0.3
2018-Jun-07 12:00N 37°58' E 023°34'1 2.7
2018-Jun-07 11:30N 37°57' E 023°35'1 2.3
2018-Jun-07 11:00N 37°57' E 023°37'0 0.0
2018-Jun-07 10:30N 37°57' E 023°37'0 0.0
2018-Jun-07 10:00N 37°57' E 023°37'0 0.0
2018-Jun-07 09:31N 37°57' E 023°37'0 0.0
2018-Jun-07 09:01N 37°57' E 023°37'3 5.5
2018-Jun-07 08:30N 37°58' E 023°33'510.1
2018-Jun-07 08:00N 38°02' E 023°32'0 0.7
2018-Jun-07 07:30N 38°02' E 023°32'2 3.1
2018-Jun-07 07:00N 38°01' E 023°32'2 4.7
2018-Jun-07 06:30N 38°02' E 023°35'0 0.9
2018-Jun-07 06:00N 38°02' E 023°34'2 3.6
2018-Jun-07 05:31N 38°01' E 023°32'0 0.1
2018-Jun-07 05:00N 38°01' E 023°32'2 4.3
2018-Jun-07 04:30N 37°59' E 023°33'4 7.0
2018-Jun-07 04:00N 37°57' E 023°37'0 0.0
2018-Jun-07 03:30N 37°57' E 023°37'0 0.0
2018-Jun-07 03:00N 37°57' E 023°37'0 0.0
2018-Jun-07 02:30N 37°57' E 023°37'0 0.0
2018-Jun-07 02:00N 37°57' E 023°37'0 0.0
2018-Jun-07 01:30N 37°57' E 023°37'0 0.0
2018-Jun-07 01:00N 37°57' E 023°37'0 0.0
2018-Jun-07 00:30N 37°57' E 023°37'0 0.0
2018-Jun-07 00:00N 37°57' E 023°37'0 0.0
2018-Jun-06 23:30N 37°57' E 023°37'0 0.0
2018-Jun-06 23:00N 37°57' E 023°37'0 0.0
2018-Jun-06 22:30N 37°57' E 023°37'0 0.0
2018-Jun-06 22:00N 37°57' E 023°37'0 0.0
2018-Jun-06 21:30N 37°57' E 023°37'0 0.0
2018-Jun-06 21:00N 37°57' E 023°37'0 0.0
2018-Jun-06 20:30N 37°57' E 023°37'0 0.0
2018-Jun-06 20:00N 37°57' E 023°37'0 0.0
2018-Jun-06 19:30N 37°57' E 023°37'0 0.0
2018-Jun-06 19:00N 37°57' E 023°37'0 0.0
2018-Jun-06 18:30N 37°57' E 023°37'0 0.0
2018-Jun-06 18:00N 37°57' E 023°37'0 0.0
2018-Jun-06 17:30N 37°57' E 023°37'0 0.0
2018-Jun-06 17:00N 37°57' E 023°37'0 0.0
2018-Jun-06 16:30N 37°57' E 023°37'0 0.0
2018-Jun-06 16:00N 37°57' E 023°37'0 0.0
2018-Jun-06 15:29N 37°57' E 023°37'0 0.0
2018-Jun-06 15:00N 37°57' E 023°37'0 0.0
2018-Jun-06 14:30N 37°57' E 023°37'0 0.0
2018-Jun-06 14:00N 37°57' E 023°37'0 0.0
2018-Jun-06 13:30N 37°57' E 023°37'0 0.0
2018-Jun-06 13:00N 37°57' E 023°37'0 0.0
2018-Jun-06 12:30N 37°57' E 023°37'0 0.0
2018-Jun-06 12:00N 37°57' E 023°37'0 0.0
2018-Jun-06 11:30N 37°57' E 023°37'0 0.0
2018-Jun-06 11:00N 37°57' E 023°37'0 0.0
2018-Jun-06 10:30N 37°57' E 023°37'0 0.0
2018-Jun-06 10:00N 37°57' E 023°37'0 0.0
2018-Jun-06 09:30N 37°57' E 023°37'0 0.0
2018-Jun-06 09:00N 37°57' E 023°37'0 0.0
2018-Jun-06 08:30N 37°57' E 023°37'0 0.0
2018-Jun-06 08:00N 37°57' E 023°37'0 0.0
2018-Jun-06 07:30N 37°57' E 023°37'0 0.0
2018-Jun-06 07:00N 37°57' E 023°37'0 0.0
2018-Jun-06 06:30N 37°57' E 023°37'1 1.5
2018-Jun-06 06:00N 37°57' E 023°36'0 0.1
2018-Jun-06 05:30N 37°57' E 023°36'1 2.0
2018-Jun-06 05:00N 37°56' E 023°35'1 2.2
2018-Jun-06 04:30N 37°57' E 023°36'1 1.3
2018-Jun-06 04:00N 37°57' E 023°36'0 0.1
2018-Jun-06 03:30N 37°57' E 023°37'0 0.0
2018-Jun-06 03:00N 37°57' E 023°37'0 0.0
2018-Jun-06 02:30N 37°57' E 023°37'0 0.0
2018-Jun-06 02:00N 37°57' E 023°37'0 0.0
2018-Jun-06 01:30N 37°57' E 023°37'0 0.0
2018-Jun-06 01:00N 37°57' E 023°37'0 0.0
2018-Jun-06 00:30N 37°57' E 023°37'0 0.0
2018-Jun-06 00:00N 37°57' E 023°37'0 0.0
2018-Jun-05 23:30N 37°57' E 023°37'0 0.0
2018-Jun-05 23:00N 37°57' E 023°37'0 0.0
2018-Jun-05 22:30N 37°57' E 023°37'0 0.0
2018-Jun-05 22:00N 37°57' E 023°37'  

Dump ship's entire track history